createdAt,value
2023-02-05T00:02:10.105Z,3.73
2023-02-05T00:04:37.173Z,4.00
2023-02-05T00:07:05.029Z,4.37
2023-02-05T00:09:32.424Z,4.20
2023-02-05T00:12:00.042Z,3.87
2023-02-05T00:14:26.985Z,4.03
2023-02-05T00:16:54.490Z,4.47
2023-02-05T00:19:21.545Z,4.40
2023-02-05T00:21:49.939Z,4.20
2023-02-05T00:24:17.069Z,4.47
2023-02-05T00:26:44.320Z,3.87
2023-02-05T00:29:11.329Z,4.40
2023-02-05T00:31:40.377Z,3.73
2023-02-05T00:34:08.038Z,3.87
2023-02-05T00:36:35.422Z,4.10
2023-02-05T00:39:02.490Z,3.70
2023-02-05T00:41:29.901Z,3.73
2023-02-05T00:43:56.879Z,4.30
2023-02-05T00:46:24.253Z,3.37
2023-02-05T00:48:53.152Z,3.20
2023-02-05T00:51:21.178Z,3.37
2023-02-05T00:53:48.192Z,3.77
2023-02-05T00:56:15.706Z,3.57
2023-02-05T00:58:47.529Z,3.50
2023-02-05T01:01:15.292Z,3.23
2023-02-05T01:03:42.963Z,3.23
2023-02-05T01:06:10.316Z,3.87
2023-02-05T01:08:37.373Z,2.97
2023-02-05T01:11:07.848Z,3.70
2023-02-05T01:13:34.804Z,3.53
2023-02-05T01:16:02.467Z,3.50
2023-02-05T01:18:29.440Z,3.07
2023-02-05T01:20:56.772Z,3.03
2023-02-05T01:23:23.760Z,3.13
2023-02-05T01:25:51.437Z,3.43
2023-02-05T01:28:18.687Z,3.10
2023-02-05T01:30:50.860Z,3.00
2023-02-05T01:33:19.018Z,2.77
2023-02-05T01:35:46.581Z,3.40
2023-02-05T01:38:14.549Z,3.40
2023-02-05T01:40:42.940Z,3.13
2023-02-05T01:43:12.771Z,3.37
2023-02-05T01:46:04.880Z,3.37
2023-02-05T01:48:35.873Z,3.60
2023-02-05T01:51:07.108Z,3.27
2023-02-05T01:53:36.062Z,3.50
2023-02-05T01:56:09.619Z,3.10
2023-02-05T01:58:48.585Z,3.40
2023-02-05T02:01:16.002Z,3.83
2023-02-05T02:03:43.320Z,3.70
2023-02-05T02:06:10.856Z,3.20
2023-02-05T02:08:38.092Z,3.70
2023-02-05T02:11:06.410Z,4.17
2023-02-05T02:13:34.902Z,3.77
2023-02-05T02:16:06.388Z,3.57
2023-02-05T02:18:35.015Z,3.87
2023-02-05T02:21:08.642Z,4.00
2023-02-05T02:24:00.408Z,4.00
2023-02-05T02:26:42.743Z,3.80
2023-02-05T02:29:18.195Z,3.80
2023-02-05T02:31:57.822Z,4.57
2023-02-05T02:34:34.042Z,3.70
2023-02-05T02:37:10.590Z,3.63
2023-02-05T02:39:37.674Z,4.00
2023-02-05T02:42:24.138Z,4.10
2023-02-05T02:44:57.691Z,4.27
2023-02-05T02:47:55.447Z,3.93
2023-02-05T02:50:32.902Z,4.00
2023-02-05T02:53:12.848Z,4.27
2023-02-05T02:55:43.777Z,3.83
2023-02-05T02:58:23.232Z,4.03
2023-02-05T03:00:52.845Z,4.33
2023-02-05T03:03:21.575Z,3.97
2023-02-05T03:05:49.765Z,4.50
2023-02-05T03:08:22.378Z,3.83
2023-02-05T03:10:57.902Z,4.40
2023-02-05T03:13:25.356Z,3.80
2023-02-05T03:15:57.351Z,4.80
2023-02-05T03:18:24.804Z,4.43
2023-02-05T03:20:56.810Z,4.03
2023-02-05T03:23:26.806Z,3.87
2023-02-05T03:25:53.908Z,3.50
2023-02-05T03:28:27.669Z,4.67
2023-02-05T03:31:08.496Z,3.80
2023-02-05T03:34:02.739Z,3.53
2023-02-05T03:36:59.684Z,3.90
2023-02-05T03:39:36.052Z,3.97
2023-02-05T03:42:18.151Z,4.17
2023-02-05T03:45:08.966Z,4.17
2023-02-05T03:47:49.328Z,4.20
2023-02-05T03:50:33.000Z,3.53
2023-02-05T03:53:27.407Z,4.00
2023-02-05T03:56:10.796Z,3.70
2023-02-05T03:58:48.345Z,4.30
2023-02-05T04:01:17.308Z,4.63
2023-02-05T04:03:45.180Z,3.97
2023-02-05T04:06:13.301Z,4.53
2023-02-05T04:08:40.572Z,4.43
2023-02-05T04:11:09.561Z,4.23
2023-02-05T04:13:37.023Z,4.20
2023-02-05T04:16:05.570Z,4.07
2023-02-05T04:18:33.040Z,3.73
2023-02-05T04:21:00.636Z,3.87
2023-02-05T04:23:29.587Z,3.77
2023-02-05T04:25:57.532Z,4.30
2023-02-05T04:28:32.424Z,4.07
2023-02-05T04:31:02.527Z,3.93
2023-02-05T04:33:31.503Z,4.40
2023-02-05T04:36:00.017Z,4.20
2023-02-05T04:38:27.382Z,4.67
2023-02-05T04:40:54.806Z,4.90
2023-02-05T04:43:21.776Z,4.70
2023-02-05T04:45:49.174Z,4.77
2023-02-05T04:48:16.334Z,4.73
2023-02-05T04:50:43.762Z,4.40
2023-02-05T04:53:10.777Z,4.73
2023-02-05T04:55:38.008Z,4.80
2023-02-05T04:58:05.034Z,4.30
2023-02-05T05:00:32.381Z,3.60
2023-02-05T05:02:59.303Z,4.57
2023-02-05T05:05:27.092Z,4.70
2023-02-05T05:07:54.081Z,5.43
2023-02-05T05:10:21.387Z,4.97
2023-02-05T05:12:48.339Z,4.67
2023-02-05T05:15:15.684Z,4.40
2023-02-05T05:17:42.676Z,4.90
2023-02-05T05:20:10.882Z,4.37
2023-02-05T05:22:37.821Z,4.23
2023-02-05T05:25:05.393Z,4.27
2023-02-05T05:27:32.345Z,5.27
2023-02-05T05:29:59.658Z,4.57
2023-02-05T05:32:26.603Z,4.47
2023-02-05T05:34:53.912Z,4.30
2023-02-05T05:37:20.843Z,4.77
2023-02-05T05:40:06.507Z,4.67
2023-02-05T05:42:52.125Z,5.17
2023-02-05T05:45:19.545Z,3.63
2023-02-05T05:47:46.559Z,4.40
2023-02-05T05:50:13.892Z,4.40
2023-02-05T05:52:40.859Z,5.00
2023-02-05T05:55:08.360Z,4.50
2023-02-05T05:57:35.342Z,4.53
2023-02-05T06:00:02.990Z,4.50
2023-02-05T06:02:44.708Z,4.53
2023-02-05T06:05:12.141Z,4.90
2023-02-05T06:07:39.200Z,4.60
2023-02-05T06:10:07.010Z,5.13
2023-02-05T06:12:33.960Z,4.90
2023-02-05T06:15:01.237Z,5.10
2023-02-05T06:17:28.307Z,4.83
2023-02-05T06:19:55.555Z,4.73
2023-02-05T06:22:22.527Z,4.77
2023-02-05T06:24:49.919Z,4.90
2023-02-05T06:27:16.912Z,5.50
2023-02-05T06:29:44.171Z,11.27
2023-02-05T06:32:11.102Z,7.77
2023-02-05T06:34:38.445Z,7.87
2023-02-05T06:37:05.368Z,8.57
2023-02-05T06:39:32.763Z,7.20
2023-02-05T06:41:59.775Z,14.33
2023-02-05T06:44:27.175Z,10.40
2023-02-05T06:46:54.170Z,11.30
2023-02-05T06:49:21.511Z,8.40
2023-02-05T06:51:48.493Z,13.40
2023-02-05T06:54:15.848Z,11.17
2023-02-05T06:56:42.882Z,9.13
2023-02-05T06:59:10.151Z,10.77
2023-02-05T07:01:37.223Z,7.33
2023-02-05T07:04:04.605Z,7.27
2023-02-05T07:06:31.630Z,6.17
2023-02-05T07:08:59.722Z,6.20
2023-02-05T07:11:27.309Z,6.00
2023-02-05T07:13:54.797Z,6.50
2023-02-05T07:16:21.876Z,6.60
2023-02-05T07:18:49.236Z,6.40
2023-02-05T07:21:17.467Z,6.40
2023-02-05T07:23:45.075Z,6.70
2023-02-05T07:26:15.190Z,5.93
2023-02-05T07:28:43.208Z,7.20
2023-02-05T07:31:15.238Z,16.53
2023-02-05T07:33:43.373Z,8.50
2023-02-05T07:36:11.901Z,13.87
2023-02-05T07:38:39.630Z,9.87
2023-02-05T07:41:08.427Z,8.50
2023-02-05T07:43:36.518Z,7.07
2023-02-05T07:46:05.843Z,9.40
2023-02-05T07:48:33.429Z,9.40
2023-02-05T07:51:00.976Z,6.87
2023-02-05T07:53:28.331Z,7.70
2023-02-05T07:55:55.407Z,7.27
2023-02-05T07:58:22.696Z,7.10
2023-02-05T08:00:49.767Z,7.60
2023-02-05T08:03:17.479Z,7.37
2023-02-05T08:05:44.500Z,8.13
2023-02-05T08:08:12.702Z,7.27
2023-02-05T08:10:39.758Z,7.43
2023-02-05T08:13:07.069Z,7.43
2023-02-05T08:15:34.289Z,8.13
2023-02-05T08:18:01.699Z,7.87
2023-02-05T08:20:28.774Z,7.47
2023-02-05T08:22:56.000Z,7.53
2023-02-05T08:25:23.021Z,6.83
2023-02-05T08:27:50.313Z,7.33
2023-02-05T08:30:18.295Z,6.90
2023-02-05T08:32:49.696Z,7.03
2023-02-05T08:35:17.497Z,7.17
2023-02-05T08:37:44.791Z,8.50
2023-02-05T08:40:12.197Z,7.87
2023-02-05T08:42:39.583Z,9.67
2023-02-05T08:45:09.094Z,8.10
2023-02-05T08:47:36.714Z,8.00
2023-02-05T08:50:05.313Z,7.17
2023-02-05T08:52:33.008Z,7.50
2023-02-05T08:54:59.940Z,8.80
2023-02-05T08:57:30.313Z,7.37
2023-02-05T08:59:57.670Z,9.50
2023-02-05T09:02:28.035Z,7.53
2023-02-05T09:05:07.697Z,7.23
2023-02-05T09:07:38.549Z,7.27
2023-02-05T09:10:07.798Z,7.73
2023-02-05T09:12:35.024Z,6.53
2023-02-05T09:15:02.077Z,6.70
2023-02-05T09:17:29.392Z,6.60
2023-02-05T09:19:56.457Z,7.37
2023-02-05T09:22:23.883Z,8.40
2023-02-05T09:24:50.918Z,6.70
2023-02-05T09:27:18.236Z,7.60
2023-02-05T09:29:45.422Z,7.90
2023-02-05T09:32:12.684Z,7.20
2023-02-05T09:34:39.761Z,6.90
2023-02-05T09:37:07.041Z,6.43
2023-02-05T09:40:18.444Z,5.77
2023-02-05T09:42:32.630Z,6.03
2023-02-05T09:45:16.944Z,5.53
2023-02-05T09:48:01.005Z,5.97
2023-02-05T09:50:30.226Z,5.80
2023-02-05T09:53:02.273Z,6.47
2023-02-05T09:55:30.688Z,5.77
2023-02-05T09:58:06.478Z,5.87
2023-02-05T10:00:38.362Z,6.37
2023-02-05T10:03:22.152Z,6.63
2023-02-05T10:06:04.345Z,6.47
2023-02-05T10:08:36.297Z,5.93
2023-02-05T10:11:04.658Z,5.77
2023-02-05T10:13:44.550Z,5.37
2023-02-05T10:16:27.375Z,5.00
2023-02-05T10:18:58.059Z,4.87
2023-02-05T10:21:46.694Z,6.13
2023-02-05T10:24:29.188Z,5.67
2023-02-05T10:27:19.596Z,6.37
2023-02-05T10:29:52.869Z,6.03
2023-02-05T10:32:24.571Z,5.70
2023-02-05T10:35:09.895Z,5.50
2023-02-05T10:37:43.435Z,5.40
2023-02-05T10:40:21.513Z,5.60
2023-02-05T10:42:55.736Z,5.20
2023-02-05T10:45:29.050Z,5.10
2023-02-05T10:48:14.767Z,5.37
2023-02-05T10:50:50.853Z,5.10
2023-02-05T10:53:20.590Z,5.40
2023-02-05T10:55:48.750Z,5.90
2023-02-05T10:58:43.186Z,5.50
2023-02-05T11:01:22.847Z,5.50
2023-02-05T11:04:02.104Z,4.97
2023-02-05T11:06:33.064Z,5.23
2023-02-05T11:09:00.131Z,5.20
2023-02-05T11:11:29.497Z,4.90
2023-02-05T11:14:01.993Z,5.53
2023-02-05T11:16:41.371Z,5.50
2023-02-05T11:19:26.189Z,5.17
2023-02-05T11:22:04.537Z,4.57
2023-02-05T11:24:36.131Z,5.30
2023-02-05T11:27:24.607Z,5.03
2023-02-05T11:29:51.760Z,5.50
2023-02-05T11:32:31.521Z,5.40
2023-02-05T11:35:18.559Z,5.03
2023-02-05T11:37:55.477Z,5.07
2023-02-05T11:40:33.648Z,4.80
2023-02-05T11:43:27.594Z,4.47
2023-02-05T11:45:57.210Z,4.70
2023-02-05T11:48:31.892Z,5.03
2023-02-05T11:51:00.540Z,4.87
2023-02-05T11:53:27.993Z,5.37
2023-02-05T11:55:57.678Z,4.40
2023-02-05T11:58:36.642Z,5.20
2023-02-05T12:01:08.945Z,3.83
2023-02-05T12:03:36.405Z,4.40
2023-02-05T12:06:07.204Z,4.60
2023-02-05T12:08:42.632Z,4.97
2023-02-05T12:11:21.775Z,4.47
2023-02-05T12:14:15.565Z,4.67
2023-02-05T12:16:47.566Z,4.40
2023-02-05T12:19:25.439Z,4.97
2023-02-05T12:22:18.527Z,5.00
2023-02-05T12:25:04.528Z,4.97
2023-02-05T12:27:45.317Z,5.17
2023-02-05T12:30:39.831Z,4.73
2023-02-05T12:33:26.231Z,5.10
2023-02-05T12:35:54.375Z,5.07
2023-02-05T12:39:13.958Z,5.03
2023-02-05T12:42:06.931Z,4.77
2023-02-05T12:44:33.896Z,4.60
2023-02-05T12:47:29.313Z,4.57
2023-02-05T12:50:26.789Z,4.37
2023-02-05T12:53:20.897Z,4.83
2023-02-05T12:56:09.512Z,4.73
2023-02-05T12:58:42.856Z,4.77
2023-02-05T13:01:16.841Z,4.60
2023-02-05T13:03:49.696Z,4.60
2023-02-05T13:06:24.386Z,4.87
2023-02-05T13:09:08.822Z,5.43
2023-02-05T13:11:42.056Z,4.63
2023-02-05T13:14:15.383Z,5.50
2023-02-05T13:16:47.341Z,5.03
2023-02-05T13:19:42.505Z,4.93
2023-02-05T13:22:39.965Z,5.27
2023-02-05T13:25:43.839Z,4.73
2023-02-05T13:28:40.095Z,5.10
2023-02-05T13:31:14.034Z,5.07
2023-02-05T13:33:41.490Z,5.63
2023-02-05T13:36:18.201Z,5.27
2023-02-05T13:39:24.355Z,5.17
2023-02-05T13:41:58.994Z,5.13
2023-02-05T13:44:26.105Z,5.63
2023-02-05T13:46:53.624Z,4.97
2023-02-05T13:49:47.820Z,5.23
2023-02-05T13:52:24.434Z,5.60
2023-02-05T13:54:57.601Z,6.20
2023-02-05T13:57:37.362Z,4.90
2023-02-05T14:00:05.878Z,5.00
2023-02-05T14:02:49.238Z,4.93
2023-02-05T14:05:31.326Z,5.10
2023-02-05T14:08:03.030Z,5.10
2023-02-05T14:10:36.537Z,5.83
2023-02-05T14:13:26.167Z,5.50
2023-02-05T14:16:00.650Z,5.50
2023-02-05T14:18:40.213Z,5.40
2023-02-05T14:21:29.886Z,4.53
2023-02-05T14:23:59.256Z,5.23
2023-02-05T14:26:46.404Z,5.53
2023-02-05T14:29:40.675Z,5.27
2023-02-05T14:32:13.657Z,5.43
2023-02-05T14:34:40.934Z,5.20
2023-02-05T14:37:24.088Z,6.23
2023-02-05T14:39:51.789Z,5.63
2023-02-05T14:42:20.409Z,5.57
2023-02-05T14:44:54.584Z,5.77
2023-02-05T14:47:29.413Z,5.23
2023-02-05T14:50:09.724Z,5.80
2023-02-05T14:52:45.636Z,5.30
2023-02-05T14:55:12.955Z,5.60
2023-02-05T14:57:51.825Z,5.67
2023-02-05T15:00:30.580Z,5.07
2023-02-05T15:03:12.606Z,5.43
2023-02-05T15:05:46.706Z,6.10
2023-02-05T15:08:21.328Z,6.37
2023-02-05T15:10:54.784Z,5.57
2023-02-05T15:13:22.667Z,5.20
2023-02-05T15:16:11.738Z,5.03
2023-02-05T15:18:41.434Z,5.33
2023-02-05T15:21:21.190Z,5.73
2023-02-05T15:23:52.880Z,5.63
2023-02-05T15:26:25.355Z,5.50
2023-02-05T15:29:14.308Z,5.73
2023-02-05T15:31:54.786Z,8.93
2023-02-05T15:34:26.759Z,6.37
2023-02-05T15:36:56.317Z,5.30
2023-02-05T15:39:52.220Z,4.90
2023-02-05T15:42:21.860Z,10.20
2023-02-05T15:44:48.890Z,8.93
2023-02-05T15:47:24.205Z,7.40
2023-02-05T15:50:02.357Z,7.53
2023-02-05T15:52:31.466Z,7.40
2023-02-05T15:55:00.912Z,7.03
2023-02-05T15:57:30.995Z,6.57
2023-02-05T16:00:00.022Z,6.07
2023-02-05T16:02:29.295Z,6.40
2023-02-05T16:05:20.458Z,6.50
2023-02-05T16:07:55.114Z,6.37
2023-02-05T16:10:31.392Z,7.00
2023-02-05T16:13:06.247Z,7.27
2023-02-05T16:15:48.086Z,7.33
2023-02-05T16:18:28.222Z,8.10
2023-02-05T16:20:59.151Z,8.03
2023-02-05T16:23:33.865Z,7.73
2023-02-05T16:26:04.238Z,8.00
2023-02-05T16:28:38.656Z,7.70
2023-02-05T16:31:07.236Z,7.20
2023-02-05T16:33:41.284Z,7.50
2023-02-05T16:36:16.343Z,8.27
2023-02-05T16:38:43.773Z,8.00
2023-02-05T16:41:22.906Z,7.93
2023-02-05T16:43:52.109Z,7.57
2023-02-05T16:46:26.997Z,8.13
2023-02-05T16:49:02.663Z,8.77
2023-02-05T16:51:34.026Z,7.83
2023-02-05T16:54:06.467Z,7.10
2023-02-05T16:56:35.961Z,7.67
2023-02-05T16:59:04.566Z,8.00
2023-02-05T17:01:43.186Z,8.77
2023-02-05T17:04:28.075Z,9.13
2023-02-05T17:06:57.565Z,9.60
2023-02-05T17:09:39.200Z,9.27
2023-02-05T17:12:33.544Z,8.53
2023-02-05T17:15:21.040Z,8.80
2023-02-05T17:17:53.092Z,8.20
2023-02-05T17:20:22.836Z,7.70
2023-02-05T17:23:05.416Z,7.13
2023-02-05T17:25:41.548Z,6.53
2023-02-05T17:28:15.352Z,5.87
2023-02-05T17:30:44.278Z,6.43
2023-02-05T17:33:18.318Z,7.23
2023-02-05T17:35:45.910Z,7.07
2023-02-05T17:38:12.954Z,6.93
2023-02-05T17:40:41.372Z,6.33
2023-02-05T17:43:08.350Z,6.53
2023-02-05T17:45:39.700Z,6.63
2023-02-05T17:48:07.464Z,6.33
2023-02-05T17:50:35.832Z,6.77
2023-02-05T17:53:03.750Z,7.30
2023-02-05T17:55:31.045Z,7.60
2023-02-05T17:57:58.141Z,7.40
2023-02-05T18:00:27.871Z,7.87
2023-02-05T18:02:54.943Z,8.03
2023-02-05T18:05:22.507Z,7.50
2023-02-05T18:07:55.009Z,8.87
2023-02-05T18:10:27.979Z,14.30
2023-02-05T18:12:58.341Z,11.60
2023-02-05T18:15:26.229Z,10.60
2023-02-05T18:17:53.613Z,8.77
2023-02-05T18:20:21.318Z,6.63
2023-02-05T18:22:49.238Z,13.23
2023-02-05T18:25:16.857Z,10.00
2023-02-05T18:27:43.898Z,20.70
2023-02-05T18:30:12.175Z,12.73
2023-02-05T18:32:39.239Z,15.30
2023-02-05T18:35:09.246Z,13.77
2023-02-05T18:37:37.166Z,6.63
2023-02-05T18:40:05.220Z,8.60
2023-02-05T18:42:32.262Z,21.33
2023-02-05T18:44:59.610Z,31.10
2023-02-05T18:47:26.751Z,7.60
2023-02-05T18:49:54.216Z,13.27
2023-02-05T18:52:22.961Z,11.37
2023-02-05T18:54:50.344Z,6.23
2023-02-05T18:57:17.708Z,8.40
2023-02-05T18:59:45.850Z,7.10
2023-02-05T19:02:12.883Z,6.43
2023-02-05T19:04:41.353Z,6.13
2023-02-05T19:07:08.427Z,6.40
2023-02-05T19:09:35.800Z,5.27
2023-02-05T19:12:03.224Z,5.57
2023-02-05T19:14:30.474Z,4.97
2023-02-05T19:16:57.565Z,5.83
2023-02-05T19:19:25.744Z,5.90
2023-02-05T19:21:54.281Z,4.43
2023-02-05T19:24:22.006Z,4.63
2023-02-05T19:26:50.944Z,5.27
2023-02-05T19:29:20.057Z,4.97
2023-02-05T19:31:47.792Z,4.27
2023-02-05T19:34:16.152Z,4.20
2023-02-05T19:36:43.566Z,4.67
2023-02-05T19:39:13.187Z,4.33
2023-02-05T19:41:41.396Z,3.73
2023-02-05T19:44:09.296Z,3.93
2023-02-05T19:46:38.341Z,4.10
2023-02-05T19:49:11.519Z,4.80
2023-02-05T19:51:38.865Z,4.47
2023-02-05T19:54:06.798Z,5.37
2023-02-05T19:56:36.063Z,5.10
2023-02-05T19:59:04.246Z,4.97
2023-02-05T20:01:33.512Z,6.20
2023-02-05T20:04:07.822Z,5.67
2023-02-05T20:06:35.616Z,5.03
2023-02-05T20:09:05.938Z,5.50
2023-02-05T20:11:32.950Z,5.30
2023-02-05T20:14:01.617Z,4.57
2023-02-05T20:16:28.742Z,5.00
2023-02-05T20:18:58.123Z,7.43
2023-02-05T20:21:26.699Z,6.50
2023-02-05T20:23:55.448Z,5.40
2023-02-05T20:26:22.762Z,5.00
2023-02-05T20:29:13.747Z,4.17
2023-02-05T20:31:48.559Z,5.87
2023-02-05T20:34:22.584Z,4.47
2023-02-05T20:37:01.216Z,5.97
2023-02-05T20:39:29.884Z,7.70
2023-02-05T20:41:59.090Z,6.97
2023-02-05T20:44:28.920Z,6.00
2023-02-05T20:46:56.511Z,6.97
2023-02-05T20:49:24.082Z,5.00
2023-02-05T20:51:53.007Z,10.73
2023-02-05T20:54:24.148Z,6.13
2023-02-05T20:56:52.080Z,6.53
2023-02-05T20:59:19.448Z,6.77
2023-02-05T21:01:46.470Z,6.53
2023-02-05T21:04:14.037Z,6.53
2023-02-05T21:06:41.331Z,7.93
2023-02-05T21:09:09.546Z,5.93
2023-02-05T21:11:36.961Z,6.20
2023-02-05T21:14:04.670Z,6.00
2023-02-05T21:16:33.855Z,5.90
2023-02-05T21:19:01.713Z,6.90
2023-02-05T21:21:31.179Z,6.70
2023-02-05T21:24:03.627Z,6.50
2023-02-05T21:26:42.130Z,6.60
2023-02-05T21:29:11.668Z,7.10
2023-02-05T21:31:47.212Z,7.20
2023-02-05T21:34:21.866Z,6.67
2023-02-05T21:36:49.879Z,6.77
2023-02-05T21:39:20.157Z,7.83
2023-02-05T21:41:48.641Z,8.23
2023-02-05T21:44:16.157Z,8.23
2023-02-05T21:46:43.126Z,6.83
2023-02-05T21:49:10.781Z,7.43
2023-02-05T21:51:37.833Z,7.30
2023-02-05T21:54:06.394Z,7.80
2023-02-05T21:56:39.303Z,8.50
2023-02-05T21:59:06.900Z,8.33
2023-02-05T22:01:35.672Z,7.97
2023-02-05T22:04:06.676Z,7.80
2023-02-05T22:06:34.571Z,7.53
2023-02-05T22:09:03.932Z,7.40
2023-02-05T22:11:31.010Z,7.63
2023-02-05T22:13:58.609Z,7.80
2023-02-05T22:16:28.759Z,7.70
2023-02-05T22:18:56.723Z,7.13
2023-02-05T22:21:27.746Z,7.13
2023-02-05T22:23:57.022Z,7.10
2023-02-05T22:26:27.684Z,8.10
2023-02-05T22:28:59.393Z,7.77
2023-02-05T22:31:27.870Z,7.13
2023-02-05T22:33:56.092Z,7.53
2023-02-05T22:36:25.127Z,7.20
2023-02-05T22:38:52.903Z,6.70
2023-02-05T22:41:24.733Z,7.03
2023-02-05T22:43:53.916Z,7.33
2023-02-05T22:46:24.602Z,7.00
2023-02-05T22:48:52.638Z,6.10
2023-02-05T22:51:25.534Z,5.90
2023-02-05T22:53:54.003Z,4.93
2023-02-05T22:56:21.549Z,5.10
2023-02-05T22:58:50.239Z,4.70
2023-02-05T23:01:19.633Z,5.50
2023-02-05T23:03:50.899Z,5.30
2023-02-05T23:06:20.976Z,5.30
2023-02-05T23:08:57.225Z,5.40
2023-02-05T23:11:25.217Z,5.37
2023-02-05T23:13:52.705Z,5.30
2023-02-05T23:16:22.408Z,5.07
2023-02-05T23:18:50.714Z,4.13
2023-02-05T23:21:20.027Z,4.97
2023-02-05T23:23:47.861Z,4.80
2023-02-05T23:26:26.097Z,5.43
2023-02-05T23:28:54.401Z,4.80
2023-02-05T23:31:21.907Z,4.83
2023-02-05T23:33:49.454Z,4.70
2023-02-05T23:36:16.560Z,5.03
2023-02-05T23:38:44.054Z,5.00
2023-02-05T23:41:12.267Z,4.77
2023-02-05T23:43:40.163Z,5.37
2023-02-05T23:46:07.678Z,4.93
2023-02-05T23:48:35.205Z,5.27
2023-02-05T23:51:02.315Z,5.03
2023-02-05T23:53:29.903Z,5.10
2023-02-05T23:55:56.945Z,4.87
2023-02-05T23:58:26.064Z,4.70
